Main page
METAR-TAF:

METAR-TAF

Airports :

Islay Airport

Islay, Scotland

latitude: 55-40-55N, longitude: 006-15-24W, elevation: 16 m

Current weather observation

The report was made 32 minutes ago, at 23:20 UTC
Wind 3 kt from the North/Northeast
Temperature 11°C
Humidity 87%
Pressure 1027 hPa
Visibility 10 km or more

METAR: EGPI 092320Z AUTO 02003KT 9999 NCD 11/09 Q1027

Time: 00:52 (23:52 UTC)

Forecast

The report was made 9 hours and 50 minutes ago, at 14:02 UTC
Forecast valid from 09 at 15 UTC to 09 at 18 UTC
Wind 7 kt from the Southwest
Visibility 10 km or more
Few clouds at a height of 2000 ft

TAF: EGPI 091402Z 0915/0918 23007KT 9999 FEW020

Weather observations and forecasts of more than 4000 airports (METAR and TAF reports).

The available stations are represented by yellow and red dots on the map.

Hover mouse over dot to see the name of the station.

Then click to see weather observations and forecasts.

To change the map : click on the green buttons with a black cross to zoom in, on the green button with a dash to zoom out, or on the green arrows for adjacent maps.


METAR-TAF: